createdAt,value
2022-12-26T00:01:02.706Z,44.80
2022-12-26T00:06:13.744Z,44.30
2022-12-26T00:11:17.256Z,43.80
2022-12-26T00:16:21.646Z,44.20
2022-12-26T00:21:29.035Z,43.90
2022-12-26T00:26:34.801Z,43.70
2022-12-26T00:31:38.238Z,43.60
2022-12-26T00:36:42.995Z,43.80
2022-12-26T00:41:46.208Z,43.80
2022-12-26T00:46:49.346Z,43.90
2022-12-26T00:51:53.853Z,44.00
2022-12-26T00:56:56.907Z,43.90
2022-12-26T01:02:00.151Z,43.80
2022-12-26T01:07:04.734Z,43.60
2022-12-26T01:12:07.869Z,43.40
2022-12-26T01:17:10.940Z,43.60
2022-12-26T01:22:15.467Z,43.70
2022-12-26T01:27:18.533Z,43.60
2022-12-26T01:32:21.904Z,43.70
2022-12-26T01:37:26.490Z,43.70
2022-12-26T01:42:38.522Z,43.40
2022-12-26T01:47:47.752Z,43.30
2022-12-26T01:52:53.145Z,43.30
2022-12-26T01:58:00.891Z,44.30
2022-12-26T02:03:21.650Z,43.60
2022-12-26T02:08:29.811Z,43.70
2022-12-26T02:13:35.836Z,43.50
2022-12-26T02:18:38.906Z,43.70
2022-12-26T02:24:28.255Z,43.60
2022-12-26T02:30:04.934Z,43.40
2022-12-26T02:35:19.271Z,43.50
2022-12-26T02:40:40.166Z,43.70
2022-12-26T02:46:07.468Z,43.60
2022-12-26T02:51:39.651Z,43.50
2022-12-26T02:57:05.439Z,43.60
2022-12-26T03:02:35.198Z,43.50
2022-12-26T03:08:00.009Z,43.30
2022-12-26T03:13:12.922Z,43.30
2022-12-26T03:18:16.531Z,43.60
2022-12-26T03:23:22.863Z,43.60
2022-12-26T03:28:26.658Z,43.70
2022-12-26T03:33:49.108Z,43.80
2022-12-26T03:38:58.051Z,43.80
2022-12-26T03:44:36.916Z,43.80
2022-12-26T03:50:03.476Z,44.10
2022-12-26T03:55:34.340Z,44.10
2022-12-26T04:00:58.592Z,44.30
2022-12-26T04:06:23.230Z,44.30
2022-12-26T04:11:46.207Z,44.60
2022-12-26T04:17:10.921Z,44.50
2022-12-26T04:22:36.529Z,44.40
2022-12-26T04:27:58.426Z,44.30
2022-12-26T04:33:29.669Z,44.40
2022-12-26T04:38:55.372Z,44.40
2022-12-26T04:44:04.175Z,44.50
2022-12-26T04:49:26.029Z,44.60
2022-12-26T04:54:29.398Z,44.50
2022-12-26T04:59:34.130Z,44.50
2022-12-26T05:04:54.758Z,44.50
2022-12-26T05:09:57.969Z,45.40
2022-12-26T05:15:02.507Z,45.70
2022-12-26T05:20:24.308Z,46.00
2022-12-26T05:25:48.088Z,46.10
2022-12-26T05:30:52.544Z,46.10
2022-12-26T05:35:55.623Z,46.10
2022-12-26T05:40:58.695Z,45.90
2022-12-26T05:46:03.197Z,45.90
2022-12-26T05:51:06.798Z,46.20
2022-12-26T05:56:13.735Z,46.20
2022-12-26T06:01:20.807Z,46.50
2022-12-26T06:06:25.195Z,46.50
2022-12-26T06:11:28.547Z,46.30
2022-12-26T06:16:33.086Z,46.30
2022-12-26T06:21:36.205Z,46.60
2022-12-26T06:26:39.265Z,46.30
2022-12-26T06:31:43.749Z,46.20
2022-12-26T06:36:46.857Z,45.40
2022-12-26T06:41:49.976Z,45.30
2022-12-26T06:46:54.490Z,45.40
2022-12-26T06:51:57.640Z,45.50
2022-12-26T06:57:00.858Z,45.30
2022-12-26T07:02:05.517Z,45.30
2022-12-26T07:07:08.634Z,45.40
2022-12-26T07:12:11.708Z,45.30
2022-12-26T07:17:16.230Z,45.20
2022-12-26T07:22:19.311Z,45.30
2022-12-26T07:27:22.368Z,45.20
2022-12-26T07:32:27.890Z,45.00
2022-12-26T07:37:30.949Z,45.30
2022-12-26T07:42:34.001Z,45.70
2022-12-26T07:47:38.444Z,46.00
2022-12-26T07:52:41.531Z,46.80
2022-12-26T07:57:49.249Z,46.90
2022-12-26T08:02:54.460Z,46.90
2022-12-26T08:07:57.814Z,47.00
2022-12-26T08:13:00.913Z,46.80
2022-12-26T08:18:05.497Z,46.80
2022-12-26T08:23:08.565Z,47.10
2022-12-26T08:28:11.649Z,46.90
2022-12-26T08:33:16.309Z,47.00
2022-12-26T08:38:19.414Z,47.30
2022-12-26T08:43:42.192Z,47.00
2022-12-26T08:48:47.764Z,47.20
2022-12-26T08:53:51.914Z,48.10
2022-12-26T08:58:55.227Z,48.40
2022-12-26T09:04:01.225Z,48.60
2022-12-26T09:09:05.086Z,49.10
2022-12-26T09:14:08.825Z,48.80
2022-12-26T09:19:16.794Z,48.90
2022-12-26T09:24:19.963Z,48.80
2022-12-26T09:29:23.096Z,48.70
2022-12-26T09:34:27.569Z,48.30
2022-12-26T09:39:30.649Z,48.20
2022-12-26T09:44:44.855Z,48.10
2022-12-26T09:49:55.311Z,47.50
2022-12-26T09:55:03.085Z,47.30
2022-12-26T10:00:07.935Z,47.30
2022-12-26T10:05:15.539Z,47.30
2022-12-26T10:10:24.910Z,46.90
2022-12-26T10:15:39.333Z,47.00
2022-12-26T10:20:55.393Z,46.60
2022-12-26T10:26:04.346Z,46.40
2022-12-26T10:31:12.427Z,46.40
2022-12-26T10:36:24.830Z,46.30
2022-12-26T10:41:32.413Z,45.90
2022-12-26T10:46:53.005Z,46.00
2022-12-26T10:52:00.333Z,45.80
2022-12-26T10:57:04.022Z,46.00
2022-12-26T11:02:24.408Z,46.10
2022-12-26T11:07:32.053Z,45.30
2022-12-26T11:12:41.460Z,45.50
2022-12-26T11:17:47.994Z,45.20
2022-12-26T11:22:52.920Z,45.10
2022-12-26T11:27:57.974Z,45.20
2022-12-26T11:33:13.706Z,45.00
2022-12-26T11:38:44.118Z,45.00
2022-12-26T11:43:49.062Z,45.10
2022-12-26T11:48:52.723Z,45.50
2022-12-26T11:54:18.941Z,45.80
2022-12-26T11:59:24.519Z,46.20
2022-12-26T12:04:27.620Z,46.30
2022-12-26T12:09:38.281Z,46.50
2022-12-26T12:14:56.285Z,46.70
2022-12-26T12:20:16.746Z,47.00
2022-12-26T12:25:39.979Z,47.00
2022-12-26T12:30:48.417Z,46.90
2022-12-26T12:36:03.190Z,46.90
2022-12-26T12:41:28.177Z,47.40
2022-12-26T12:46:40.819Z,47.60
2022-12-26T12:51:52.615Z,47.40
2022-12-26T12:57:02.819Z,47.40
2022-12-26T13:02:22.234Z,47.60
2022-12-26T13:07:34.087Z,47.60
2022-12-26T13:12:40.998Z,47.60
2022-12-26T13:17:51.001Z,47.90
2022-12-26T13:23:17.313Z,48.20
2022-12-26T13:28:29.132Z,48.20
2022-12-26T13:33:32.990Z,47.90
2022-12-26T13:39:24.834Z,47.70
2022-12-26T13:44:29.335Z,48.10
2022-12-26T13:49:37.018Z,48.00
2022-12-26T13:55:18.764Z,48.10
2022-12-26T14:00:41.097Z,48.30
2022-12-26T14:05:58.099Z,48.50
2022-12-26T14:11:11.840Z,48.60
2022-12-26T14:16:21.705Z,48.60
2022-12-26T14:21:34.887Z,48.60
2022-12-26T14:26:47.964Z,48.50
2022-12-26T14:32:11.227Z,48.50
2022-12-26T14:37:21.252Z,48.60
2022-12-26T14:42:42.736Z,48.70
2022-12-26T14:47:49.408Z,48.50
2022-12-26T14:52:52.903Z,48.50
2022-12-26T14:57:56.447Z,48.60
2022-12-26T15:03:40.482Z,48.50
2022-12-26T15:09:01.086Z,48.50
2022-12-26T15:14:37.594Z,48.50
2022-12-26T15:20:11.698Z,48.80
2022-12-26T15:25:45.491Z,49.00
2022-12-26T15:31:08.278Z,49.00
2022-12-26T15:36:22.928Z,49.20
2022-12-26T15:41:36.645Z,49.10
2022-12-26T15:46:45.003Z,48.80
2022-12-26T15:51:57.722Z,48.80
2022-12-26T15:57:14.465Z,48.90
2022-12-26T16:02:47.024Z,48.90
2022-12-26T16:07:55.870Z,48.80
2022-12-26T16:13:02.398Z,48.70
2022-12-26T16:18:16.018Z,48.50
2022-12-26T16:23:23.442Z,48.60
2022-12-26T16:28:29.324Z,48.60
2022-12-26T16:33:35.780Z,48.50
2022-12-26T16:38:40.508Z,48.50
2022-12-26T16:43:43.609Z,48.50
2022-12-26T16:48:53.462Z,48.60
2022-12-26T16:54:16.757Z,48.40
2022-12-26T16:59:22.222Z,48.40
2022-12-26T17:04:27.396Z,48.50
2022-12-26T17:09:41.977Z,48.50
2022-12-26T17:14:49.888Z,48.40
2022-12-26T17:19:55.129Z,48.40
2022-12-26T17:25:24.529Z,48.40
2022-12-26T17:30:30.099Z,48.40
2022-12-26T17:36:06.087Z,48.20
2022-12-26T17:41:03.490Z,48.20
2022-12-26T17:46:08.425Z,48.40
2022-12-26T17:51:16.987Z,48.20
2022-12-26T17:56:24.276Z,48.30
2022-12-26T18:01:27.634Z,48.00
2022-12-26T18:06:30.938Z,48.00
2022-12-26T18:11:36.171Z,47.90
2022-12-26T18:16:39.267Z,47.80
2022-12-26T18:21:42.847Z,47.90
2022-12-26T18:26:47.454Z,47.80
2022-12-26T18:31:50.589Z,47.80
2022-12-26T18:36:53.706Z,47.90
2022-12-26T18:41:58.175Z,47.80
2022-12-26T18:47:01.277Z,47.70
2022-12-26T18:52:04.469Z,47.70
2022-12-26T18:57:12.893Z,47.70
2022-12-26T19:02:17.811Z,47.70
2022-12-26T19:07:21.317Z,47.70
2022-12-26T19:12:26.310Z,47.60
2022-12-26T19:17:29.412Z,47.60
2022-12-26T19:22:32.493Z,47.70
2022-12-26T19:27:36.959Z,47.70
2022-12-26T19:32:40.054Z,47.50
2022-12-26T19:37:43.177Z,47.60
2022-12-26T19:42:47.649Z,47.60
2022-12-26T19:47:50.719Z,47.60
2022-12-26T19:52:53.791Z,47.60
2022-12-26T19:57:58.260Z,47.60
2022-12-26T20:03:01.375Z,47.70
2022-12-26T20:08:04.731Z,47.70
2022-12-26T20:13:09.201Z,47.80
2022-12-26T20:18:15.107Z,47.80
2022-12-26T20:23:18.299Z,47.90
2022-12-26T20:28:22.824Z,47.80
2022-12-26T20:33:25.928Z,47.70
2022-12-26T20:38:29.003Z,47.70
2022-12-26T20:43:33.977Z,47.20
2022-12-26T20:48:37.827Z,46.90
2022-12-26T20:53:41.738Z,46.90
2022-12-26T20:58:46.547Z,46.70
2022-12-26T21:03:52.582Z,46.80
2022-12-26T21:08:56.554Z,46.90
2022-12-26T21:14:02.858Z,46.90
2022-12-26T21:19:10.879Z,47.20
2022-12-26T21:24:19.692Z,47.30
2022-12-26T21:29:26.575Z,47.60
2022-12-26T21:34:32.077Z,47.80
2022-12-26T21:39:37.026Z,47.70
2022-12-26T21:44:41.854Z,47.70
2022-12-26T21:49:45.084Z,47.60
2022-12-26T21:55:05.454Z,47.70
2022-12-26T22:00:11.508Z,47.60
2022-12-26T22:05:15.053Z,47.60
2022-12-26T22:10:32.083Z,47.50
2022-12-26T22:15:53.968Z,47.40
2022-12-26T22:20:57.054Z,47.70
2022-12-26T22:26:00.817Z,47.60
2022-12-26T22:31:05.744Z,47.50
2022-12-26T22:36:10.349Z,47.70
2022-12-26T22:41:13.424Z,47.70
2022-12-26T22:46:18.056Z,47.40
2022-12-26T22:51:24.037Z,47.70
2022-12-26T22:56:27.712Z,47.80
2022-12-26T23:01:32.417Z,47.60
2022-12-26T23:06:38.053Z,47.80
2022-12-26T23:11:41.674Z,47.80
2022-12-26T23:16:51.505Z,47.70
2022-12-26T23:21:55.074Z,47.60
2022-12-26T23:27:20.181Z,47.40
2022-12-26T23:32:24.635Z,47.20
2022-12-26T23:37:27.796Z,47.20
2022-12-26T23:42:30.899Z,47.10
2022-12-26T23:47:37.881Z,47.20
2022-12-26T23:52:41.368Z,47.00
2022-12-26T23:57:44.423Z,46.60
